createdAt,value
2023-05-10T00:02:48.593Z,61.95
2023-05-10T00:07:17.948Z,61.98
2023-05-10T00:11:47.512Z,62.08
2023-05-10T00:16:24.589Z,62.34
2023-05-10T00:20:56.218Z,62.02
2023-05-10T00:25:15.873Z,62.22
2023-05-10T00:29:47.932Z,62.47
2023-05-10T00:34:11.218Z,62.51
2023-05-10T00:38:38.334Z,62.20
2023-05-10T00:43:11.156Z,62.51
2023-05-10T00:47:55.958Z,62.31
2023-05-10T00:52:20.022Z,62.42
2023-05-10T00:56:43.309Z,62.16
2023-05-10T01:01:07.464Z,62.25
2023-05-10T01:05:52.130Z,62.31
2023-05-10T01:10:17.221Z,62.63
2023-05-10T01:14:40.420Z,62.65
2023-05-10T01:19:13.971Z,62.49
2023-05-10T01:23:54.812Z,62.74
2023-05-10T01:28:42.344Z,62.56
2023-05-10T01:33:18.601Z,62.29
2023-05-10T01:37:43.617Z,62.78
2023-05-10T01:42:11.204Z,62.74
2023-05-10T01:46:38.498Z,62.35
2023-05-10T01:51:08.276Z,62.50
2023-05-10T01:55:37.818Z,62.42
2023-05-10T01:59:43.454Z,63.40
2023-05-10T02:04:06.541Z,63.26
2023-05-10T02:08:38.110Z,63.45
2023-05-10T02:13:01.184Z,63.82
2023-05-10T02:17:36.361Z,64.10
2023-05-10T02:22:40.863Z,64.23
2023-05-10T02:27:06.904Z,64.11
2023-05-10T02:31:36.214Z,64.29
2023-05-10T02:36:25.775Z,64.43
2023-05-10T02:41:03.101Z,65.18
2023-05-10T02:45:36.065Z,64.72
2023-05-10T02:50:16.899Z,64.58
2023-05-10T02:55:16.308Z,64.34
2023-05-10T02:59:45.909Z,64.33
2023-05-10T03:04:22.534Z,64.38
2023-05-10T03:08:56.311Z,64.38
2023-05-10T03:14:13.221Z,64.50
2023-05-10T03:18:46.223Z,64.66
2023-05-10T03:23:52.921Z,64.65
2023-05-10T03:28:59.730Z,64.64
2023-05-10T03:34:12.453Z,64.63
2023-05-10T03:39:24.855Z,65.01
2023-05-10T03:44:37.641Z,64.87
2023-05-10T03:49:54.849Z,64.67
2023-05-10T03:54:24.274Z,64.94
2023-05-10T03:59:28.130Z,64.93
2023-05-10T04:04:15.480Z,65.01
2023-05-10T04:09:26.308Z,65.10
2023-05-10T04:14:32.027Z,65.35
2023-05-10T04:19:36.749Z,65.16
2023-05-10T04:24:46.919Z,65.20
2023-05-10T04:29:47.546Z,65.28
2023-05-10T04:34:59.363Z,65.35
2023-05-10T04:40:05.881Z,65.30
2023-05-10T04:45:09.817Z,64.95
2023-05-10T04:50:13.627Z,64.85
2023-05-10T04:55:17.322Z,64.82
2023-05-10T05:00:01.246Z,64.68
2023-05-10T05:05:14.238Z,64.39
2023-05-10T05:10:18.272Z,64.25
2023-05-10T05:15:40.814Z,63.78
2023-05-10T05:20:45.734Z,62.98
2023-05-10T05:25:57.749Z,61.66
2023-05-10T05:31:02.636Z,60.95
2023-05-10T05:36:06.739Z,59.97
2023-05-10T05:41:22.214Z,59.53
2023-05-10T05:46:35.852Z,59.58
2023-05-10T05:51:50.637Z,59.65
2023-05-10T05:56:47.720Z,59.48
2023-05-10T06:01:51.830Z,59.12
2023-05-10T06:07:01.660Z,58.36
2023-05-10T06:12:05.701Z,58.51
2023-05-10T06:17:11.523Z,58.65
2023-05-10T06:22:02.732Z,59.46
2023-05-10T06:27:06.470Z,58.60
2023-05-10T06:32:24.034Z,58.31
2023-05-10T06:37:30.801Z,58.30
2023-05-10T06:42:34.605Z,58.26
2023-05-10T06:47:32.849Z,58.11
2023-05-10T06:52:42.520Z,57.98
2023-05-10T06:57:46.634Z,58.42
2023-05-10T07:02:51.245Z,58.03
2023-05-10T07:08:02.636Z,57.78
2023-05-10T07:13:17.643Z,57.28
2023-05-10T07:18:29.385Z,57.46
2023-05-10T07:23:36.556Z,57.29
2023-05-10T07:28:46.624Z,57.69
2023-05-10T07:34:05.018Z,58.31
2023-05-10T07:39:18.591Z,58.83
2023-05-10T07:44:22.899Z,59.27
2023-05-10T07:49:38.866Z,59.72
2023-05-10T07:54:43.792Z,60.08
2023-05-10T07:59:56.089Z,60.02
2023-05-10T08:05:03.072Z,59.90
2023-05-10T08:10:07.905Z,60.29
2023-05-10T08:15:15.232Z,60.00
2023-05-10T08:20:31.270Z,59.74
2023-05-10T08:25:50.244Z,59.31
2023-05-10T08:30:55.969Z,59.12
2023-05-10T08:36:14.957Z,58.33
2023-05-10T08:41:25.562Z,57.85
2023-05-10T08:47:15.578Z,57.09
2023-05-10T08:52:32.237Z,54.95
2023-05-10T08:57:58.178Z,53.12
2023-05-10T09:03:00.714Z,53.57
2023-05-10T09:08:03.105Z,53.56
2023-05-10T09:13:07.182Z,52.39
2023-05-10T09:18:12.894Z,52.62
2023-05-10T09:23:22.415Z,52.50
2023-05-10T09:28:37.592Z,51.42
2023-05-10T09:33:56.284Z,51.15
2023-05-10T09:38:47.051Z,50.30
2023-05-10T09:44:08.092Z,49.94
2023-05-10T09:49:27.280Z,50.05
2023-05-10T09:54:30.673Z,49.65
2023-05-10T09:59:54.694Z,49.69
2023-05-10T10:04:50.952Z,48.77
2023-05-10T10:09:53.365Z,49.10
2023-05-10T10:15:00.624Z,48.75
2023-05-10T10:20:13.242Z,48.22
2023-05-10T10:25:15.759Z,48.31
2023-05-10T10:30:25.950Z,47.75
2023-05-10T10:35:32.740Z,47.19
2023-05-10T10:40:37.201Z,47.00
2023-05-10T10:45:43.086Z,47.61
2023-05-10T10:50:45.551Z,46.08
2023-05-10T10:56:00.379Z,45.82
2023-05-10T11:01:22.738Z,45.18
2023-05-10T11:06:41.495Z,45.52
2023-05-10T11:11:56.126Z,45.81
2023-05-10T11:17:21.373Z,45.81
2023-05-10T11:22:32.427Z,45.77
2023-05-10T11:27:35.987Z,45.41
2023-05-10T11:32:38.526Z,45.74
2023-05-10T11:37:44.659Z,45.01
2023-05-10T11:42:48.067Z,45.33
2023-05-10T11:47:52.269Z,44.94
2023-05-10T11:53:10.327Z,44.31
2023-05-10T11:58:14.654Z,44.75
2023-05-10T12:03:36.462Z,44.79
2023-05-10T12:08:53.434Z,44.87
2023-05-10T12:14:07.685Z,44.60
2023-05-10T12:19:17.905Z,43.73
2023-05-10T12:24:22.400Z,42.88
2023-05-10T12:28:44.184Z,42.95
2023-05-10T12:33:21.915Z,43.15
2023-05-10T12:37:56.390Z,43.33
2023-05-10T12:42:18.542Z,42.69
2023-05-10T12:46:51.153Z,43.29
2023-05-10T12:51:23.837Z,43.53
2023-05-10T12:55:52.772Z,44.08
2023-05-10T13:00:17.570Z,43.60
2023-05-10T13:04:48.194Z,44.10
2023-05-10T13:09:17.128Z,44.64
2023-05-10T13:14:20.862Z,45.40
2023-05-10T13:19:29.055Z,45.91
2023-05-10T13:24:29.740Z,46.57
2023-05-10T13:29:52.502Z,47.50
2023-05-10T13:34:57.727Z,47.69
2023-05-10T13:40:20.005Z,47.75
2023-05-10T13:45:36.671Z,48.10
2023-05-10T13:50:44.698Z,48.13
2023-05-10T14:00:16.526Z,48.19
2023-05-10T14:05:26.874Z,48.27
2023-05-10T14:10:50.243Z,48.75
2023-05-10T14:15:54.044Z,48.54
2023-05-10T14:21:05.425Z,48.39
2023-05-10T14:26:11.308Z,48.56
2023-05-10T14:31:28.553Z,48.72
2023-05-10T14:36:34.482Z,48.57
2023-05-10T14:41:48.148Z,48.80
2023-05-10T14:47:07.331Z,48.84
2023-05-10T14:52:27.950Z,48.75
2023-05-10T14:57:16.533Z,48.92
2023-05-10T15:02:31.929Z,48.75
2023-05-10T15:07:49.912Z,48.71
2023-05-10T15:17:29.785Z,48.73
2023-05-10T15:22:48.791Z,48.46
2023-05-10T15:27:53.532Z,48.35
2023-05-10T15:33:10.968Z,48.58
2023-05-10T15:38:25.855Z,48.66
2023-05-10T15:43:35.832Z,48.54
2023-05-10T15:48:48.166Z,48.47
2023-05-10T15:53:33.912Z,48.52
2023-05-10T15:58:48.091Z,48.57
2023-05-10T16:03:37.602Z,48.70
2023-05-10T16:08:56.764Z,48.86
2023-05-10T16:14:07.744Z,49.04
2023-05-10T16:19:41.005Z,49.18
2023-05-10T16:25:20.115Z,48.75
2023-05-10T16:30:28.306Z,48.43
2023-05-10T16:35:37.310Z,48.81
2023-05-10T16:40:47.768Z,48.95
2023-05-10T16:46:00.266Z,49.48
2023-05-10T16:51:05.263Z,49.96
2023-05-10T16:56:22.105Z,50.31
2023-05-10T17:01:11.152Z,50.75
2023-05-10T17:06:24.130Z,50.98
2023-05-10T17:11:36.714Z,51.48
2023-05-10T17:16:43.581Z,51.69
2023-05-10T17:21:53.536Z,52.46
2023-05-10T17:26:59.456Z,52.81
2023-05-10T17:32:09.620Z,53.31
2023-05-10T17:37:13.791Z,53.94
2023-05-10T17:42:18.601Z,54.34
2023-05-10T17:47:22.034Z,54.57
2023-05-10T17:51:46.140Z,55.09
2023-05-10T17:56:10.163Z,55.53
2023-05-10T18:00:34.216Z,56.01
2023-05-10T18:04:59.945Z,56.24
2023-05-10T18:09:24.120Z,56.62
2023-05-10T18:13:49.151Z,57.21
2023-05-10T18:18:13.059Z,57.42
2023-05-10T18:22:37.120Z,57.93
2023-05-10T18:27:02.674Z,58.25
2023-05-10T18:31:26.748Z,58.39
2023-05-10T18:35:50.816Z,58.79
2023-05-10T18:40:15.101Z,59.19
2023-05-10T18:44:39.029Z,59.34
2023-05-10T18:49:02.988Z,59.44
2023-05-10T18:53:26.998Z,59.75
2023-05-10T18:57:52.039Z,59.71
2023-05-10T19:02:18.059Z,59.99
2023-05-10T19:06:44.106Z,60.05
2023-05-10T19:11:08.149Z,60.26
2023-05-10T19:15:33.192Z,60.16
2023-05-10T19:19:57.649Z,60.24
2023-05-10T19:24:22.679Z,60.29
2023-05-10T19:28:46.640Z,60.24
2023-05-10T19:33:05.538Z,60.51
2023-05-10T19:37:29.760Z,60.76
2023-05-10T19:41:53.777Z,60.90
2023-05-10T19:46:20.124Z,60.76
2023-05-10T19:50:46.421Z,60.86
2023-05-10T19:55:10.262Z,60.76
2023-05-10T19:59:35.185Z,61.06
2023-05-10T20:04:00.228Z,61.35
2023-05-10T20:08:24.261Z,61.47
2023-05-10T20:12:49.234Z,61.59
2023-05-10T20:17:16.360Z,61.59
2023-05-10T20:21:43.253Z,61.78
2023-05-10T20:26:07.352Z,61.99
2023-05-10T20:30:30.364Z,62.14
2023-05-10T20:34:55.419Z,62.18
2023-05-10T20:39:20.324Z,62.31
2023-05-10T20:43:45.303Z,62.66
2023-05-10T20:48:09.264Z,62.62
2023-05-10T20:52:33.260Z,62.69
2023-05-10T20:56:58.143Z,63.03
2023-05-10T21:01:22.226Z,63.06
2023-05-10T21:05:46.335Z,63.01
2023-05-10T21:10:10.264Z,63.21
2023-05-10T21:14:34.215Z,63.27
2023-05-10T21:18:59.310Z,63.46
2023-05-10T21:23:23.338Z,63.70
2023-05-10T21:27:50.531Z,63.61
2023-05-10T21:32:16.383Z,63.70
2023-05-10T21:36:40.320Z,63.62
2023-05-10T21:41:04.388Z,63.66
2023-05-10T21:45:28.205Z,63.77
2023-05-10T21:49:52.140Z,63.77
2023-05-10T21:54:16.014Z,63.68
2023-05-10T21:58:40.412Z,63.72
2023-05-10T22:03:06.509Z,63.43
2023-05-10T22:07:10.268Z,63.73
2023-05-10T22:11:35.466Z,63.69
2023-05-10T22:16:00.434Z,63.79
2023-05-10T22:20:25.123Z,63.83
2023-05-10T22:24:42.068Z,63.54
2023-05-10T22:29:05.982Z,63.70
2023-05-10T22:33:30.859Z,63.72
2023-05-10T22:37:54.796Z,63.95
2023-05-10T22:42:18.867Z,64.15
2023-05-10T22:46:41.738Z,64.21
2023-05-10T22:51:06.911Z,64.14
2023-05-10T22:55:30.836Z,64.00
2023-05-10T22:59:56.824Z,63.97
2023-05-10T23:04:21.907Z,64.35
2023-05-10T23:08:46.359Z,64.53
2023-05-10T23:13:10.285Z,64.14
2023-05-10T23:17:34.712Z,64.07
2023-05-10T23:21:58.892Z,64.06
2023-05-10T23:26:22.902Z,63.98
2023-05-10T23:30:47.047Z,64.14
2023-05-10T23:35:11.253Z,64.28
2023-05-10T23:39:37.424Z,64.66
2023-05-10T23:44:01.270Z,64.90
2023-05-10T23:48:27.191Z,65.19
2023-05-10T23:52:52.120Z,64.89
2023-05-10T23:57:22.815Z,64.91
